sensor_id;sensor_type;location;lat;lon;timestamp;temperature;humidity
74178;DHT22;62540;48.456;-4.456;2024-01-11T00:01:58;5.35;73.32
74178;DHT22;62540;48.456;-4.456;2024-01-11T00:04:24;5.36;73.30
74178;DHT22;62540;48.456;-4.456;2024-01-11T00:06:50;5.38;73.24
74178;DHT22;62540;48.456;-4.456;2024-01-11T00:09:16;5.39;73.25
74178;DHT22;62540;48.456;-4.456;2024-01-11T00:11:41;5.36;73.30
74178;DHT22;62540;48.456;-4.456;2024-01-11T00:14:07;5.40;73.28
74178;DHT22;62540;48.456;-4.456;2024-01-11T00:16:32;5.40;73.33
74178;DHT22;62540;48.456;-4.456;2024-01-11T00:18:57;5.42;73.34
74178;DHT22;62540;48.456;-4.456;2024-01-11T00:21:23;5.42;73.34
74178;DHT22;62540;48.456;-4.456;2024-01-11T00:23:49;5.40;73.31
74178;DHT22;62540;48.456;-4.456;2024-01-11T00:26:15;5.43;73.29
74178;DHT22;62540;48.456;-4.456;2024-01-11T00:28:40;5.43;73.32
74178;DHT22;62540;48.456;-4.456;2024-01-11T00:31:06;5.46;73.36
74178;DHT22;62540;48.456;-4.456;2024-01-11T00:33:31;5.43;73.41
74178;DHT22;62540;48.456;-4.456;2024-01-11T00:35:57;5.42;73.40
74178;DHT22;62540;48.456;-4.456;2024-01-11T00:38:23;5.39;73.41
74178;DHT22;62540;48.456;-4.456;2024-01-11T00:40:48;5.40;73.44
74178;DHT22;62540;48.456;-4.456;2024-01-11T00:43:14;5.43;73.40
74178;DHT22;62540;48.456;-4.456;2024-01-11T00:45:40;5.42;73.45
74178;DHT22;62540;48.456;-4.456;2024-01-11T00:48:05;5.36;73.45
74178;DHT22;62540;48.456;-4.456;2024-01-11T00:50:31;5.31;73.47
74178;DHT22;62540;48.456;-4.456;2024-01-11T00:52:57;5.27;73.57
74178;DHT22;62540;48.456;-4.456;2024-01-11T00:55:22;5.22;73.50
74178;DHT22;62540;48.456;-4.456;2024-01-11T00:57:48;5.15;73.70
74178;DHT22;62540;48.456;-4.456;2024-01-11T01:00:13;5.11;73.71
74178;DHT22;62540;48.456;-4.456;2024-01-11T01:02:42;5.04;73.72
74178;DHT22;62540;48.456;-4.456;2024-01-11T01:05:07;5.02;73.72
74178;DHT22;62540;48.456;-4.456;2024-01-11T01:07:33;4.95;73.79
74178;DHT22;62540;48.456;-4.456;2024-01-11T01:09:58;4.92;73.88
74178;DHT22;62540;48.456;-4.456;2024-01-11T01:12:24;4.87;73.87
74178;DHT22;62540;48.456;-4.456;2024-01-11T01:14:52;4.84;73.85
74178;DHT22;62540;48.456;-4.456;2024-01-11T01:17:17;4.74;73.96
74178;DHT22;62540;48.456;-4.456;2024-01-11T01:19:43;4.63;74.12
74178;DHT22;62540;48.456;-4.456;2024-01-11T01:22:09;4.57;74.25
74178;DHT22;62540;48.456;-4.456;2024-01-11T01:24:34;4.50;74.38
74178;DHT22;62540;48.456;-4.456;2024-01-11T01:27:00;4.45;74.29
74178;DHT22;62540;48.456;-4.456;2024-01-11T01:29:25;4.45;74.41
74178;DHT22;62540;48.456;-4.456;2024-01-11T01:31:51;4.40;74.36
74178;DHT22;62540;48.456;-4.456;2024-01-11T01:34:17;4.39;74.24
74178;DHT22;62540;48.456;-4.456;2024-01-11T01:36:42;4.36;74.22
74178;DHT22;62540;48.456;-4.456;2024-01-11T01:39:08;4.32;74.23
74178;DHT22;62540;48.456;-4.456;2024-01-11T01:41:33;4.33;74.18
74178;DHT22;62540;48.456;-4.456;2024-01-11T01:43:59;4.28;73.92
74178;DHT22;62540;48.456;-4.456;2024-01-11T01:46:25;4.23;73.88
74178;DHT22;62540;48.456;-4.456;2024-01-11T01:48:51;4.26;73.97
74178;DHT22;62540;48.456;-4.456;2024-01-11T01:51:19;4.25;73.95
74178;DHT22;62540;48.456;-4.456;2024-01-11T01:53:45;4.25;73.73
74178;DHT22;62540;48.456;-4.456;2024-01-11T01:56:11;4.26;73.76
74178;DHT22;62540;48.456;-4.456;2024-01-11T01:58:37;4.26;73.39
74178;DHT22;62540;48.456;-4.456;2024-01-11T02:01:02;4.25;73.24
74178;DHT22;62540;48.456;-4.456;2024-01-11T02:03:28;4.25;73.16
74178;DHT22;62540;48.456;-4.456;2024-01-11T02:05:54;4.26;73.03
74178;DHT22;62540;48.456;-4.456;2024-01-11T02:08:22;4.26;72.75
74178;DHT22;62540;48.456;-4.456;2024-01-11T02:10:48;4.22;72.74
74178;DHT22;62540;48.456;-4.456;2024-01-11T02:13:15;4.23;72.60
74178;DHT22;62540;48.456;-4.456;2024-01-11T02:15:40;4.23;72.51
74178;DHT22;62540;48.456;-4.456;2024-01-11T02:18:06;4.22;72.49
74178;DHT22;62540;48.456;-4.456;2024-01-11T02:20:31;4.18;72.14
74178;DHT22;62540;48.456;-4.456;2024-01-11T02:23:03;4.12;72.27
74178;DHT22;62540;48.456;-4.456;2024-01-11T02:25:28;4.12;72.21
74178;DHT22;62540;48.456;-4.456;2024-01-11T02:27:54;4.08;71.78
74178;DHT22;62540;48.456;-4.456;2024-01-11T02:30:19;4.06;71.60
74178;DHT22;62540;48.456;-4.456;2024-01-11T02:32:49;4.03;71.62
74178;DHT22;62540;48.456;-4.456;2024-01-11T02:35:18;4.03;71.49
74178;DHT22;62540;48.456;-4.456;2024-01-11T02:37:44;4.02;71.41
74178;DHT22;62540;48.456;-4.456;2024-01-11T02:40:12;3.97;71.37
74178;DHT22;62540;48.456;-4.456;2024-01-11T02:42:38;3.85;71.46
74178;DHT22;62540;48.456;-4.456;2024-01-11T02:45:03;3.78;71.06
74178;DHT22;62540;48.456;-4.456;2024-01-11T02:47:29;3.77;70.99
74178;DHT22;62540;48.456;-4.456;2024-01-11T02:49:55;3.73;71.10
74178;DHT22;62540;48.456;-4.456;2024-01-11T02:52:22;3.74;70.94
74178;DHT22;62540;48.456;-4.456;2024-01-11T02:54:48;3.70;70.37
74178;DHT22;62540;48.456;-4.456;2024-01-11T02:57:13;3.61;70.43
74178;DHT22;62540;48.456;-4.456;2024-01-11T02:59:40;3.56;70.30
74178;DHT22;62540;48.456;-4.456;2024-01-11T03:02:05;3.50;70.19
74178;DHT22;62540;48.456;-4.456;2024-01-11T03:04:31;3.47;70.14
74178;DHT22;62540;48.456;-4.456;2024-01-11T03:06:56;3.43;70.37
74178;DHT22;62540;48.456;-4.456;2024-01-11T03:09:21;3.43;70.45
74178;DHT22;62540;48.456;-4.456;2024-01-11T03:11:47;3.32;70.22
74178;DHT22;62540;48.456;-4.456;2024-01-11T03:14:12;3.23;70.25
74178;DHT22;62540;48.456;-4.456;2024-01-11T03:16:38;3.24;70.52
74178;DHT22;62540;48.456;-4.456;2024-01-11T03:19:05;3.20;70.42
74178;DHT22;62540;48.456;-4.456;2024-01-11T03:21:30;3.15;70.38
74178;DHT22;62540;48.456;-4.456;2024-01-11T03:23:56;3.15;70.43
74178;DHT22;62540;48.456;-4.456;2024-01-11T03:26:22;3.09;70.38
74178;DHT22;62540;48.456;-4.456;2024-01-11T03:28:47;3.06;70.34
74178;DHT22;62540;48.456;-4.456;2024-01-11T03:31:13;3.01;70.24
74178;DHT22;62540;48.456;-4.456;2024-01-11T03:33:39;2.98;70.13
74178;DHT22;62540;48.456;-4.456;2024-01-11T03:36:08;2.96;70.35
74178;DHT22;62540;48.456;-4.456;2024-01-11T03:38:34;2.98;70.43
74178;DHT22;62540;48.456;-4.456;2024-01-11T03:41:00;2.93;70.06
74178;DHT22;62540;48.456;-4.456;2024-01-11T03:43:25;2.93;70.35
74178;DHT22;62540;48.456;-4.456;2024-01-11T03:45:50;2.88;70.24
74178;DHT22;62540;48.456;-4.456;2024-01-11T03:48:16;2.85;70.26
74178;DHT22;62540;48.456;-4.456;2024-01-11T03:50:41;2.71;70.36
74178;DHT22;62540;48.456;-4.456;2024-01-11T03:53:07;2.74;70.69
74178;DHT22;62540;48.456;-4.456;2024-01-11T03:55:33;2.66;70.77
74178;DHT22;62540;48.456;-4.456;2024-01-11T03:57:58;2.68;70.82
74178;DHT22;62540;48.456;-4.456;2024-01-11T04:00:24;2.66;70.86
74178;DHT22;62540;48.456;-4.456;2024-01-11T04:02:49;2.60;70.74
74178;DHT22;62540;48.456;-4.456;2024-01-11T04:05:14;2.61;70.90
74178;DHT22;62540;48.456;-4.456;2024-01-11T04:07:41;2.60;70.93
74178;DHT22;62540;48.456;-4.456;2024-01-11T04:10:07;2.60;71.02
74178;DHT22;62540;48.456;-4.456;2024-01-11T04:12:35;2.66;70.97
74178;DHT22;62540;48.456;-4.456;2024-01-11T04:15:00;2.66;70.79
74178;DHT22;62540;48.456;-4.456;2024-01-11T04:17:26;2.65;70.55
74178;DHT22;62540;48.456;-4.456;2024-01-11T04:19:51;2.57;70.50
74178;DHT22;62540;48.456;-4.456;2024-01-11T04:22:17;2.58;70.57
74178;DHT22;62540;48.456;-4.456;2024-01-11T04:24:43;2.54;70.35
74178;DHT22;62540;48.456;-4.456;2024-01-11T04:27:08;2.48;70.39
74178;DHT22;62540;48.456;-4.456;2024-01-11T04:29:34;2.41;70.17
74178;DHT22;62540;48.456;-4.456;2024-01-11T04:31:59;2.37;69.81
74178;DHT22;62540;48.456;-4.456;2024-01-11T04:34:24;2.38;70.19
74178;DHT22;62540;48.456;-4.456;2024-01-11T04:36:50;2.33;69.91
74178;DHT22;62540;48.456;-4.456;2024-01-11T04:39:15;2.27;70.12
74178;DHT22;62540;48.456;-4.456;2024-01-11T04:41:41;2.33;70.28
74178;DHT22;62540;48.456;-4.456;2024-01-11T04:44:06;2.32;70.22
74178;DHT22;62540;48.456;-4.456;2024-01-11T04:46:32;2.23;69.94
74178;DHT22;62540;48.456;-4.456;2024-01-11T04:48:57;2.22;70.28
74178;DHT22;62540;48.456;-4.456;2024-01-11T04:51:22;2.19;70.20
74178;DHT22;62540;48.456;-4.456;2024-01-11T04:53:48;2.16;70.12
74178;DHT22;62540;48.456;-4.456;2024-01-11T04:56:15;2.10;70.25
74178;DHT22;62540;48.456;-4.456;2024-01-11T04:58:41;2.09;70.18
74178;DHT22;62540;48.456;-4.456;2024-01-11T05:01:14;2.06;70.15
74178;DHT22;62540;48.456;-4.456;2024-01-11T05:03:41;2.03;70.10
74178;DHT22;62540;48.456;-4.456;2024-01-11T05:06:06;1.96;70.14
74178;DHT22;62540;48.456;-4.456;2024-01-11T05:08:31;1.98;70.26
74178;DHT22;62540;48.456;-4.456;2024-01-11T05:10:57;1.98;70.28
74178;DHT22;62540;48.456;-4.456;2024-01-11T05:13:22;1.99;70.05
74178;DHT22;62540;48.456;-4.456;2024-01-11T05:15:48;1.98;70.13
74178;DHT22;62540;48.456;-4.456;2024-01-11T05:18:13;1.95;69.98
74178;DHT22;62540;48.456;-4.456;2024-01-11T05:20:39;1.95;70.03
74178;DHT22;62540;48.456;-4.456;2024-01-11T05:23:05;1.91;70.04
74178;DHT22;62540;48.456;-4.456;2024-01-11T05:25:31;1.91;70.06
74178;DHT22;62540;48.456;-4.456;2024-01-11T05:28:00;1.95;70.12
74178;DHT22;62540;48.456;-4.456;2024-01-11T05:30:25;1.93;69.88
74178;DHT22;62540;48.456;-4.456;2024-01-11T05:32:51;1.98;69.96
74178;DHT22;62540;48.456;-4.456;2024-01-11T05:35:16;1.93;69.92
74178;DHT22;62540;48.456;-4.456;2024-01-11T05:37:42;1.93;69.99
74178;DHT22;62540;48.456;-4.456;2024-01-11T05:40:08;1.95;69.99
74178;DHT22;62540;48.456;-4.456;2024-01-11T05:42:33;1.93;69.98
74178;DHT22;62540;48.456;-4.456;2024-01-11T05:44:59;1.96;69.95
74178;DHT22;62540;48.456;-4.456;2024-01-11T05:47:24;1.98;70.03
74178;DHT22;62540;48.456;-4.456;2024-01-11T05:49:50;1.98;69.94
74178;DHT22;62540;48.456;-4.456;2024-01-11T05:52:15;1.93;69.96
74178;DHT22;62540;48.456;-4.456;2024-01-11T05:54:41;1.96;70.08
74178;DHT22;62540;48.456;-4.456;2024-01-11T05:57:06;1.98;70.13
74178;DHT22;62540;48.456;-4.456;2024-01-11T05:59:32;1.99;70.11
74178;DHT22;62540;48.456;-4.456;2024-01-11T06:01:58;1.96;70.21
74178;DHT22;62540;48.456;-4.456;2024-01-11T06:04:26;1.99;70.24
74178;DHT22;62540;48.456;-4.456;2024-01-11T06:06:51;1.95;70.28
74178;DHT22;62540;48.456;-4.456;2024-01-11T06:09:17;1.95;70.42
74178;DHT22;62540;48.456;-4.456;2024-01-11T06:11:43;1.92;70.52
74178;DHT22;62540;48.456;-4.456;2024-01-11T06:14:08;1.93;70.66
74178;DHT22;62540;48.456;-4.456;2024-01-11T06:16:34;1.95;70.68
74178;DHT22;62540;48.456;-4.456;2024-01-11T06:18:59;1.96;70.72
74178;DHT22;62540;48.456;-4.456;2024-01-11T06:21:25;1.98;70.74
74178;DHT22;62540;48.456;-4.456;2024-01-11T06:23:51;2.01;70.69
74178;DHT22;62540;48.456;-4.456;2024-01-11T06:26:16;1.98;70.83
74178;DHT22;62540;48.456;-4.456;2024-01-11T06:28:42;1.98;70.86
74178;DHT22;62540;48.456;-4.456;2024-01-11T06:31:09;1.98;70.97
74178;DHT22;62540;48.456;-4.456;2024-01-11T06:33:35;1.99;71.02
74178;DHT22;62540;48.456;-4.456;2024-01-11T06:36:04;2.01;71.08
74178;DHT22;62540;48.456;-4.456;2024-01-11T06:38:30;1.98;71.08
74178;DHT22;62540;48.456;-4.456;2024-01-11T06:40:57;1.99;71.13
74178;DHT22;62540;48.456;-4.456;2024-01-11T06:43:22;1.99;71.21
74178;DHT22;62540;48.456;-4.456;2024-01-11T06:45:47;1.99;71.13
74178;DHT22;62540;48.456;-4.456;2024-01-11T06:48:13;2.03;71.08
74178;DHT22;62540;48.456;-4.456;2024-01-11T06:50:38;2.05;71.09
74178;DHT22;62540;48.456;-4.456;2024-01-11T06:53:04;2.02;71.17
74178;DHT22;62540;48.456;-4.456;2024-01-11T06:55:29;2.06;71.16
74178;DHT22;62540;48.456;-4.456;2024-01-11T06:57:55;2.06;71.17
74178;DHT22;62540;48.456;-4.456;2024-01-11T07:00:20;2.05;71.24
74178;DHT22;62540;48.456;-4.456;2024-01-11T07:02:47;2.06;71.31
74178;DHT22;62540;48.456;-4.456;2024-01-11T07:05:12;2.10;71.20
74178;DHT22;62540;48.456;-4.456;2024-01-11T07:07:37;2.09;71.25
74178;DHT22;62540;48.456;-4.456;2024-01-11T07:10:03;2.10;71.33
74178;DHT22;62540;48.456;-4.456;2024-01-11T07:12:30;2.12;71.49
74178;DHT22;62540;48.456;-4.456;2024-01-11T07:14:56;2.16;71.45
74178;DHT22;62540;48.456;-4.456;2024-01-11T07:17:21;2.20;71.44
74178;DHT22;62540;48.456;-4.456;2024-01-11T07:19:48;2.23;71.41
74178;DHT22;62540;48.456;-4.456;2024-01-11T07:22:13;2.26;71.54
74178;DHT22;62540;48.456;-4.456;2024-01-11T07:24:38;2.32;71.43
74178;DHT22;62540;48.456;-4.456;2024-01-11T07:27:07;2.32;71.61
74178;DHT22;62540;48.456;-4.456;2024-01-11T07:29:33;2.32;71.62
74178;DHT22;62540;48.456;-4.456;2024-01-11T07:31:59;2.38;71.70
74178;DHT22;62540;48.456;-4.456;2024-01-11T07:34:25;2.38;71.74
74178;DHT22;62540;48.456;-4.456;2024-01-11T07:36:52;2.43;71.79
74178;DHT22;62540;48.456;-4.456;2024-01-11T07:39:17;2.44;71.84
74178;DHT22;62540;48.456;-4.456;2024-01-11T07:41:43;2.50;71.92
74178;DHT22;62540;48.456;-4.456;2024-01-11T07:44:08;2.50;71.93
74178;DHT22;62540;48.456;-4.456;2024-01-11T07:46:33;2.50;72.02
74178;DHT22;62540;48.456;-4.456;2024-01-11T07:48:59;2.53;72.08
74178;DHT22;62540;48.456;-4.456;2024-01-11T07:51:24;2.60;72.05
74178;DHT22;62540;48.456;-4.456;2024-01-11T07:53:50;2.61;72.11
74178;DHT22;62540;48.456;-4.456;2024-01-11T07:56:15;2.65;72.03
74178;DHT22;62540;48.456;-4.456;2024-01-11T07:58:42;2.71;72.07
74178;DHT22;62540;48.456;-4.456;2024-01-11T08:01:07;2.74;72.17
74178;DHT22;62540;48.456;-4.456;2024-01-11T08:03:33;2.74;72.27
74178;DHT22;62540;48.456;-4.456;2024-01-11T08:06:00;2.80;72.21
74178;DHT22;62540;48.456;-4.456;2024-01-11T08:08:26;2.80;72.21
74178;DHT22;62540;48.456;-4.456;2024-01-11T08:10:51;2.85;72.21
74178;DHT22;62540;48.456;-4.456;2024-01-11T08:13:17;2.88;72.24
74178;DHT22;62540;48.456;-4.456;2024-01-11T08:15:43;2.91;72.39
74178;DHT22;62540;48.456;-4.456;2024-01-11T08:18:08;2.93;72.33
74178;DHT22;62540;48.456;-4.456;2024-01-11T08:20:34;2.96;72.42
74178;DHT22;62540;48.456;-4.456;2024-01-11T08:22:59;2.96;72.41
74178;DHT22;62540;48.456;-4.456;2024-01-11T08:25:25;3.02;72.37
74178;DHT22;62540;48.456;-4.456;2024-01-11T08:27:50;3.05;72.32
74178;DHT22;62540;48.456;-4.456;2024-01-11T08:30:16;3.06;72.29
74178;DHT22;62540;48.456;-4.456;2024-01-11T08:32:41;3.11;72.30
74178;DHT22;62540;48.456;-4.456;2024-01-11T08:35:09;3.08;72.32
74178;DHT22;62540;48.456;-4.456;2024-01-11T08:37:35;3.13;72.29
74178;DHT22;62540;48.456;-4.456;2024-01-11T08:40:01;3.19;72.17
74178;DHT22;62540;48.456;-4.456;2024-01-11T08:42:26;3.16;72.21
74178;DHT22;62540;48.456;-4.456;2024-01-11T08:44:52;3.20;72.15
74178;DHT22;62540;48.456;-4.456;2024-01-11T08:47:18;3.24;72.12
74178;DHT22;62540;48.456;-4.456;2024-01-11T08:49:43;3.27;72.08
74178;DHT22;62540;48.456;-4.456;2024-01-11T08:52:08;3.24;72.16
74178;DHT22;62540;48.456;-4.456;2024-01-11T08:54:34;3.32;72.08
74178;DHT22;62540;48.456;-4.456;2024-01-11T08:57:00;3.34;72.00
74178;DHT22;62540;48.456;-4.456;2024-01-11T08:59:25;3.40;71.97
74178;DHT22;62540;48.456;-4.456;2024-01-11T09:01:51;3.46;71.84
74178;DHT22;62540;48.456;-4.456;2024-01-11T09:04:17;3.49;71.77
74178;DHT22;62540;48.456;-4.456;2024-01-11T09:06:43;3.53;71.81
74178;DHT22;62540;48.456;-4.456;2024-01-11T09:09:08;3.56;71.68
74178;DHT22;62540;48.456;-4.456;2024-01-11T09:11:36;3.60;71.67
74178;DHT22;62540;48.456;-4.456;2024-01-11T09:14:01;3.57;71.63
74178;DHT22;62540;48.456;-4.456;2024-01-11T09:16:28;3.61;71.66
74178;DHT22;62540;48.456;-4.456;2024-01-11T09:18:54;3.71;71.59
74178;DHT22;62540;48.456;-4.456;2024-01-11T09:21:19;3.73;71.46
74178;DHT22;62540;48.456;-4.456;2024-01-11T09:23:45;3.80;71.42
74178;DHT22;62540;48.456;-4.456;2024-01-11T09:26:10;3.82;71.37
74178;DHT22;62540;48.456;-4.456;2024-01-11T09:28:35;3.85;71.41
74178;DHT22;62540;48.456;-4.456;2024-01-11T09:31:01;3.90;71.35
74178;DHT22;62540;48.456;-4.456;2024-01-11T09:33:27;3.94;71.27
74178;DHT22;62540;48.456;-4.456;2024-01-11T09:35:54;3.97;71.31
74178;DHT22;62540;48.456;-4.456;2024-01-11T09:38:21;3.97;71.38
74178;DHT22;62540;48.456;-4.456;2024-01-11T09:40:59;4.06;71.41
74178;DHT22;62540;48.456;-4.456;2024-01-11T09:43:29;4.11;71.37
74178;DHT22;62540;48.456;-4.456;2024-01-11T09:45:55;4.19;71.42
74178;DHT22;62540;48.456;-4.456;2024-01-11T09:48:22;4.30;71.40
74178;DHT22;62540;48.456;-4.456;2024-01-11T09:50:49;4.36;71.33
74178;DHT22;62540;48.456;-4.456;2024-01-11T09:53:16;4.43;71.29
74178;DHT22;62540;48.456;-4.456;2024-01-11T09:55:42;4.48;71.23
74178;DHT22;62540;48.456;-4.456;2024-01-11T09:58:08;4.57;71.20
74178;DHT22;62540;48.456;-4.456;2024-01-11T10:00:35;4.64;71.11
74178;DHT22;62540;48.456;-4.456;2024-01-11T10:03:00;4.69;71.11
74178;DHT22;62540;48.456;-4.456;2024-01-11T10:05:27;4.77;71.12
74178;DHT22;62540;48.456;-4.456;2024-01-11T10:07:54;4.83;71.05
74178;DHT22;62540;48.456;-4.456;2024-01-11T10:10:20;4.87;71.07
74178;DHT22;62540;48.456;-4.456;2024-01-11T10:12:47;4.92;71.08
74178;DHT22;62540;48.456;-4.456;2024-01-11T10:15:12;4.98;70.97
74178;DHT22;62540;48.456;-4.456;2024-01-11T10:17:42;5.08;70.81
74178;DHT22;62540;48.456;-4.456;2024-01-11T10:20:12;5.21;70.83
74178;DHT22;62540;48.456;-4.456;2024-01-11T10:22:42;5.36;70.88
74178;DHT22;62540;48.456;-4.456;2024-01-11T10:25:13;5.52;70.42
74178;DHT22;62540;48.456;-4.456;2024-01-11T10:27:43;5.71;70.31
74178;DHT22;62540;48.456;-4.456;2024-01-11T10:30:10;5.90;70.09
74178;DHT22;62540;48.456;-4.456;2024-01-11T10:32:38;6.11;69.76
74178;DHT22;62540;48.456;-4.456;2024-01-11T10:35:04;6.29;69.27
74178;DHT22;62540;48.456;-4.456;2024-01-11T10:37:31;6.48;69.29
74178;DHT22;62540;48.456;-4.456;2024-01-11T10:39:58;6.64;68.66
74178;DHT22;62540;48.456;-4.456;2024-01-11T10:42:27;6.76;68.06
74178;DHT22;62540;48.456;-4.456;2024-01-11T10:44:54;6.93;68.37
74178;DHT22;62540;48.456;-4.456;2024-01-11T10:47:24;7.10;67.66
74178;DHT22;62540;48.456;-4.456;2024-01-11T10:49:54;7.31;68.00
74178;DHT22;62540;48.456;-4.456;2024-01-11T10:52:22;7.41;66.99
74178;DHT22;62540;48.456;-4.456;2024-01-11T10:54:50;7.56;66.96
74178;DHT22;62540;48.456;-4.456;2024-01-11T10:57:17;7.65;67.25
74178;DHT22;62540;48.456;-4.456;2024-01-11T10:59:44;7.81;66.88
74178;DHT22;62540;48.456;-4.456;2024-01-11T11:02:10;7.92;66.13
74178;DHT22;62540;48.456;-4.456;2024-01-11T11:04:38;8.02;66.49
74178;DHT22;62540;48.456;-4.456;2024-01-11T11:07:04;8.14;65.92
74178;DHT22;62540;48.456;-4.456;2024-01-11T11:09:34;8.06;65.55
74178;DHT22;62540;48.456;-4.456;2024-01-11T11:12:00;7.87;65.11
74178;DHT22;62540;48.456;-4.456;2024-01-11T11:14:27;7.68;65.76
74178;DHT22;62540;48.456;-4.456;2024-01-11T11:16:53;7.59;65.81
74178;DHT22;62540;48.456;-4.456;2024-01-11T11:19:20;7.47;66.14
74178;DHT22;62540;48.456;-4.456;2024-01-11T11:21:47;7.36;66.64
74178;DHT22;62540;48.456;-4.456;2024-01-11T11:24:13;7.28;67.07
74178;DHT22;62540;48.456;-4.456;2024-01-11T11:26:39;7.30;67.25
74178;DHT22;62540;48.456;-4.456;2024-01-11T11:29:05;7.28;67.53
74178;DHT22;62540;48.456;-4.456;2024-01-11T11:31:58;7.27;67.81
74178;DHT22;62540;48.456;-4.456;2024-01-11T11:34:43;7.27;68.10
74178;DHT22;62540;48.456;-4.456;2024-01-11T11:37:12;7.32;68.21
74178;DHT22;62540;48.456;-4.456;2024-01-11T11:39:37;7.34;68.48
74178;DHT22;62540;48.456;-4.456;2024-01-11T11:42:04;7.28;68.72
74178;DHT22;62540;48.456;-4.456;2024-01-11T11:44:29;7.38;68.63
74178;DHT22;62540;48.456;-4.456;2024-01-11T11:46:57;7.31;69.01
74178;DHT22;62540;48.456;-4.456;2024-01-11T11:50:03;7.32;69.28
74178;DHT22;62540;48.456;-4.456;2024-01-11T11:52:33;7.32;69.56
74178;DHT22;62540;48.456;-4.456;2024-01-11T11:55:01;7.32;69.77
74178;DHT22;62540;48.456;-4.456;2024-01-11T11:57:27;7.36;69.86
74178;DHT22;62540;48.456;-4.456;2024-01-11T11:59:56;7.41;70.03
74178;DHT22;62540;48.456;-4.456;2024-01-11T12:02:22;7.43;70.18
74178;DHT22;62540;48.456;-4.456;2024-01-11T12:04:50;7.31;70.55
74178;DHT22;62540;48.456;-4.456;2024-01-11T12:07:15;7.41;70.62
74178;DHT22;62540;48.456;-4.456;2024-01-11T12:09:41;7.47;70.57
74178;DHT22;62540;48.456;-4.456;2024-01-11T12:12:07;7.51;70.76
74178;DHT22;62540;48.456;-4.456;2024-01-11T12:14:36;7.50;70.72
74178;DHT22;62540;48.456;-4.456;2024-01-11T12:17:02;7.50;70.94
74178;DHT22;62540;48.456;-4.456;2024-01-11T12:19:28;7.55;70.96
74178;DHT22;62540;48.456;-4.456;2024-01-11T12:21:54;7.55;71.11
74178;DHT22;62540;48.456;-4.456;2024-01-11T12:24:20;7.56;71.02
74178;DHT22;62540;48.456;-4.456;2024-01-11T12:26:47;7.55;71.23
74178;DHT22;62540;48.456;-4.456;2024-01-11T12:29:17;7.56;71.21
74178;DHT22;62540;48.456;-4.456;2024-01-11T12:31:42;7.56;71.43
74178;DHT22;62540;48.456;-4.456;2024-01-11T12:34:08;7.61;71.47
74178;DHT22;62540;48.456;-4.456;2024-01-11T12:36:34;7.71;71.29
74178;DHT22;62540;48.456;-4.456;2024-01-11T12:38:59;7.75;71.44
74178;DHT22;62540;48.456;-4.456;2024-01-11T12:41:24;7.73;71.28
74178;DHT22;62540;48.456;-4.456;2024-01-11T12:43:50;7.83;71.29
74178;DHT22;62540;48.456;-4.456;2024-01-11T12:46:16;7.96;71.14
74178;DHT22;62540;48.456;-4.456;2024-01-11T12:48:42;8.00;71.14
74178;DHT22;62540;48.456;-4.456;2024-01-11T12:51:07;7.99;71.01
74178;DHT22;62540;48.456;-4.456;2024-01-11T12:53:35;8.03;70.97
74178;DHT22;62540;48.456;-4.456;2024-01-11T12:56:05;8.03;71.26
74178;DHT22;62540;48.456;-4.456;2024-01-11T12:58:36;8.07;71.07
74178;DHT22;62540;48.456;-4.456;2024-01-11T13:01:03;8.16;70.96
74178;DHT22;62540;48.456;-4.456;2024-01-11T13:03:29;8.07;71.05
74178;DHT22;62540;48.456;-4.456;2024-01-11T13:05:56;8.14;71.30
74178;DHT22;62540;48.456;-4.456;2024-01-11T13:08:21;8.21;71.40
74178;DHT22;62540;48.456;-4.456;2024-01-11T13:10:47;8.30;71.05
74178;DHT22;62540;48.456;-4.456;2024-01-11T13:13:13;8.38;70.77
74178;DHT22;62540;48.456;-4.456;2024-01-11T13:15:39;8.41;70.74
74178;DHT22;62540;48.456;-4.456;2024-01-11T13:18:05;8.52;70.82
74178;DHT22;62540;48.456;-4.456;2024-01-11T13:20:31;8.61;70.37
74178;DHT22;62540;48.456;-4.456;2024-01-11T13:25:38;8.76;70.56
74178;DHT22;62540;48.456;-4.456;2024-01-11T13:28:04;8.85;70.49
74178;DHT22;62540;48.456;-4.456;2024-01-11T13:30:31;9.05;70.49
74178;DHT22;62540;48.456;-4.456;2024-01-11T13:32:58;9.10;69.73
74178;DHT22;62540;48.456;-4.456;2024-01-11T13:35:23;9.16;69.18
74178;DHT22;62540;48.456;-4.456;2024-01-11T13:37:48;9.18;69.23
74178;DHT22;62540;48.456;-4.456;2024-01-11T13:40:14;9.16;69.14
74178;DHT22;62540;48.456;-4.456;2024-01-11T13:42:40;9.18;69.47
74178;DHT22;62540;48.456;-4.456;2024-01-11T13:45:05;9.16;69.29
74178;DHT22;62540;48.456;-4.456;2024-01-11T13:47:34;9.18;69.32
74178;DHT22;62540;48.456;-4.456;2024-01-11T13:50:00;9.23;69.50
74178;DHT22;62540;48.456;-4.456;2024-01-11T13:52:25;9.27;69.02
74178;DHT22;62540;48.456;-4.456;2024-01-11T13:54:50;9.24;69.22
74178;DHT22;62540;48.456;-4.456;2024-01-11T13:57:16;9.31;69.05
74178;DHT22;62540;48.456;-4.456;2024-01-11T13:59:42;9.23;68.87
74178;DHT22;62540;48.456;-4.456;2024-01-11T14:02:07;9.29;69.22
74178;DHT22;62540;48.456;-4.456;2024-01-11T14:04:32;9.34;69.26
74178;DHT22;62540;48.456;-4.456;2024-01-11T14:06:59;9.29;69.13
74178;DHT22;62540;48.456;-4.456;2024-01-11T14:09:25;9.29;69.36
74178;DHT22;62540;48.456;-4.456;2024-01-11T14:11:51;9.33;69.32
74178;DHT22;62540;48.456;-4.456;2024-01-11T14:14:16;9.34;69.37
74178;DHT22;62540;48.456;-4.456;2024-01-11T14:16:44;9.36;69.15
74178;DHT22;62540;48.456;-4.456;2024-01-11T14:19:10;9.29;69.33
74178;DHT22;62540;48.456;-4.456;2024-01-11T14:21:36;9.20;69.71
74178;DHT22;62540;48.456;-4.456;2024-01-11T14:24:03;9.26;69.84
74178;DHT22;62540;48.456;-4.456;2024-01-11T14:26:28;9.23;69.89
74178;DHT22;62540;48.456;-4.456;2024-01-11T14:28:54;9.26;70.00
74178;DHT22;62540;48.456;-4.456;2024-01-11T14:31:19;9.31;70.12
74178;DHT22;62540;48.456;-4.456;2024-01-11T14:33:45;9.37;69.92
74178;DHT22;62540;48.456;-4.456;2024-01-11T14:36:10;9.43;69.81
74178;DHT22;62540;48.456;-4.456;2024-01-11T14:38:36;9.46;69.86
74178;DHT22;62540;48.456;-4.456;2024-01-11T14:41:02;9.47;69.83
74178;DHT22;62540;48.456;-4.456;2024-01-11T14:43:28;9.44;69.72
74178;DHT22;62540;48.456;-4.456;2024-01-11T14:45:53;9.33;69.91
74178;DHT22;62540;48.456;-4.456;2024-01-11T14:48:19;9.29;69.92
74178;DHT22;62540;48.456;-4.456;2024-01-11T14:50:45;9.20;70.05
74178;DHT22;62540;48.456;-4.456;2024-01-11T14:53:10;9.12;70.09
74178;DHT22;62540;48.456;-4.456;2024-01-11T14:55:36;9.08;70.22
74178;DHT22;62540;48.456;-4.456;2024-01-11T14:58:02;8.99;70.48
74178;DHT22;62540;48.456;-4.456;2024-01-11T15:00:28;8.93;70.62
74178;DHT22;62540;48.456;-4.456;2024-01-11T15:02:53;8.89;70.86
74178;DHT22;62540;48.456;-4.456;2024-01-11T15:05:18;8.92;70.85
74178;DHT22;62540;48.456;-4.456;2024-01-11T15:07:44;8.93;70.88
74178;DHT22;62540;48.456;-4.456;2024-01-11T15:10:09;8.95;70.98
74178;DHT22;62540;48.456;-4.456;2024-01-11T15:12:35;8.98;70.91
74178;DHT22;62540;48.456;-4.456;2024-01-11T15:15:01;8.98;70.64
74178;DHT22;62540;48.456;-4.456;2024-01-11T15:17:27;8.98;70.33
74178;DHT22;62540;48.456;-4.456;2024-01-11T15:19:52;8.92;69.93
74178;DHT22;62540;48.456;-4.456;2024-01-11T15:22:18;8.86;70.03
74178;DHT22;62540;48.456;-4.456;2024-01-11T15:24:43;8.85;70.30
74178;DHT22;62540;48.456;-4.456;2024-01-11T15:27:09;8.82;70.29